< < Back
Terminal Aerodrome Forecast


Current Version              Previous Versions:   1  2  3  4  5  6  7  8  9  

Terminal Aerodrome Forecast

806
FTUS42 KILM 032320
TAFFLO
TAF
KFLO 032320Z 0400/0424 16008KT P6SM FEW030 SCT060
     FM040100 18004KT P6SM FEW060
     FM040900 VRB02KT 6SM BR SKC
     FM041300 24004KT P6SM SKC=



Latest METAR

742
SAUS70 KWBC 050300 RRH
MTRFLO
METAR KFLO 050253Z AUTO 15003KT 10SM CLR 18/13 A3034 RMK AO2 SLP269
T01830128 51019


USA.gov is the U.S. government's official web portal to all federal, state and local government web resources and services.